Time;durP1;ratioP1;P1;durP2;ratioP2;P2;SDS_P1;SDS_P2;PMS_P1;PMS_P2;Temp;Humidity;BMP_temperature;BMP_pressure;BME280_temperature;BME280_humidity;BME280_pressure;Samples;Min_cycle;Max_cycle;Signal;HPM_P1;HPM_P2
2022/03/01 00:01:38;;;;;;;20.23;6.70;;;-1.90;99.90;;;;;;5012453;28;20096;-51
2022/03/01 00:04:05;;;;;;;15.20;5.47;;;-1.90;99.90;;;;;;5013266;28;20046;-52
2022/03/01 00:06:33;;;;;;;15.93;6.45;;;-1.90;99.90;;;;;;5012510;28;20045;-55
2022/03/01 00:09:00;;;;;;;14.57;6.10;;;-1.90;99.90;;;;;;5012050;28;20483;-53
2022/03/01 00:11:28;;;;;;;12.57;5.40;;;-1.90;99.90;;;;;;5023736;28;20083;-55
2022/03/01 00:13:55;;;;;;;16.58;6.35;;;-1.80;99.90;;;;;;5031615;28;20052;-54
2022/03/01 00:16:22;;;;;;;17.88;6.25;;;-1.80;99.90;;;;;;5031243;28;20054;-55
2022/03/01 00:18:50;;;;;;;12.93;6.07;;;-1.90;99.90;;;;;;5035035;28;20072;-52
2022/03/01 00:21:17;;;;;;;;;;;-1.90;99.90;;;;;;5050810;28;20045;-52
2022/03/01 00:23:43;;;;;;;13.98;6.28;;;-1.90;99.90;;;;;;5051209;28;19927;-52
2022/03/01 00:26:11;;;;;;;12.90;5.95;;;-1.90;99.90;;;;;;5033322;28;20044;-51
2022/03/01 00:28:37;;;;;;;13.02;5.60;;;-2.00;99.90;;;;;;5044504;28;20059;-54
2022/03/01 00:31:04;;;;;;;19.85;6.55;;;-2.10;99.90;;;;;;5051375;28;20045;-52
2022/03/01 00:33:32;;;;;;;13.98;5.45;;;-2.10;99.90;;;;;;5037123;28;20037;-54
2022/03/01 00:35:59;;;;;;;12.13;5.15;;;-2.10;99.90;;;;;;5042682;28;20102;-52
2022/03/01 00:38:26;;;;;;;;;;;-2.10;99.90;;;;;;5051085;28;20052;-50
2022/03/01 00:40:53;;;;;;;14.40;5.68;;;-2.10;99.90;;;;;;5051233;28;19925;-53
2022/03/01 00:43:21;;;;;;;10.85;4.65;;;-2.00;99.90;;;;;;5035630;28;20041;-53
2022/03/01 00:45:49;;;;;;;11.60;5.57;;;-2.10;99.90;;;;;;5042625;28;20040;-54
2022/03/01 00:48:17;;;;;;;11.60;4.65;;;-2.20;99.90;;;;;;5050681;28;20049;-51
2022/03/01 00:50:44;;;;;;;16.00;5.82;;;-2.20;99.90;;;;;;5051268;28;20662;-51
2022/03/01 00:53:11;;;;;;;15.70;5.72;;;-2.20;99.90;;;;;;5039525;28;20516;-52
2022/03/01 00:55:38;;;;;;;13.88;6.22;;;-2.20;99.90;;;;;;5050226;28;20405;-51
2022/03/01 00:58:05;;;;;;;13.02;5.10;;;-2.30;99.90;;;;;;5050720;28;20041;-53
2022/03/01 01:00:33;;;;;;;;;;;-2.30;99.90;;;;;;5037282;28;20037;-52
2022/03/01 01:03:01;;;;;;;12.15;5.03;;;-2.20;99.90;;;;;;5042702;28;19955;-53
2022/03/01 01:05:29;;;;;;;10.70;4.85;;;-2.20;99.90;;;;;;5051032;28;20037;-55
2022/03/01 01:07:56;;;;;;;12.32;5.38;;;-2.20;99.90;;;;;;5045893;28;20392;-51
2022/03/01 01:10:24;;;;;;;15.35;5.95;;;-2.20;99.90;;;;;;5045933;28;20037;-52
2022/03/01 01:12:50;;;;;;;12.35;6.22;;;-2.30;99.90;;;;;;5054871;28;20529;-53
2022/03/01 01:15:20;;;;;;;18.17;6.18;;;-2.50;99.90;;;;;;5055038;28;20049;-54
2022/03/01 01:17:47;;;;;;;12.65;5.75;;;-2.60;99.90;;;;;;5046068;28;20378;-54
2022/03/01 01:20:15;;;;;;;15.07;6.00;;;-2.70;99.90;;;;;;5044682;28;20069;-52
2022/03/01 01:22:43;;;;;;;14.43;5.53;;;-2.70;99.90;;;;;;5054591;28;20711;-54
2022/03/01 01:25:19;;;;;;;15.52;5.75;;;-2.70;99.90;;;;;;5054645;28;20041;-51
2022/03/01 01:27:48;;;;;;;13.20;5.10;;;-2.70;99.90;;;;;;5027195;28;20579;-54
2022/03/01 01:30:19;;;;;;;13.55;4.93;;;-2.60;99.90;;;;;;5046178;28;20501;-53
2022/03/01 01:32:48;;;;;;;13.23;5.60;;;-2.60;99.90;;;;;;5054634;28;20049;-52
2022/03/01 01:35:17;;;;;;;17.05;7.30;;;-2.50;99.90;;;;;;5051036;28;20128;-51
2022/03/01 01:37:45;;;;;;;15.02;7.28;;;-2.40;99.90;;;;;;5045376;28;20047;-53
2022/03/01 01:40:15;;;;;;;19.20;8.15;;;-2.40;99.90;;;;;;5054053;28;20049;-53
2022/03/01 01:42:43;;;;;;;15.23;6.40;;;-2.40;99.90;;;;;;5054314;28;20457;-53
2022/03/01 01:45:11;;;;;;;18.50;6.18;;;-2.40;99.90;;;;;;5036592;28;20036;-54
2022/03/01 01:47:46;;;;;;;12.75;6.10;;;-2.40;99.90;;;;;;5048184;28;20049;-50
2022/03/01 01:50:13;;;;;;;14.05;5.53;;;-2.40;99.90;;;;;;5054136;28;20048;-54
2022/03/01 01:52:43;;;;;;;17.70;5.55;;;-2.50;99.90;;;;;;5044445;28;20116;-54
2022/03/01 01:55:10;;;;;;;13.20;5.22;;;-2.50;99.90;;;;;;5041525;28;20456;-53
2022/03/01 01:57:36;;;;;;;10.20;4.80;;;-2.50;99.90;;;;;;5053342;28;20047;-53
2022/03/01 02:00:06;;;;;;;10.70;4.35;;;-2.50;99.90;;;;;;5052416;28;20178;-52
2022/03/01 02:02:39;;;;;;;11.85;5.10;;;-2.50;99.90;;;;;;5043292;28;20819;-54
2022/03/01 02:05:07;;;;;;;12.65;4.63;;;-2.60;99.90;;;;;;5051210;28;20048;-54
2022/03/01 02:07:35;;;;;;;13.82;4.97;;;-2.60;99.90;;;;;;5053255;28;20053;-53
2022/03/01 02:10:07;;;;;;;14.48;5.07;;;-2.60;99.90;;;;;;5040418;28;20041;-52
2022/03/01 02:12:34;;;;;;;12.90;5.15;;;-2.60;99.90;;;;;;5045133;28;20049;-51
2022/03/01 02:15:02;;;;;;;14.43;4.93;;;-2.60;99.90;;;;;;5053750;28;20409;-51
2022/03/01 02:21:57;;;;;;;16.45;5.93;;;-2.60;99.90;;;;;;5053085;28;20055;-53
2022/03/01 02:24:27;;;;;;;15.95;5.90;;;-2.70;99.90;;;;;;5053452;28;20075;-55
2022/03/01 02:26:59;;;;;;;17.38;5.65;;;-2.80;99.90;;;;;;5039994;28;20033;-52
2022/03/01 02:29:27;;;;;;;14.10;5.85;;;-2.80;99.90;;;;;;5036970;28;20041;-54
2022/03/01 02:31:56;;;;;;;16.92;5.70;;;-2.90;99.90;;;;;;5053426;28;20055;-54
2022/03/01 02:34:23;;;;;;;16.98;6.03;;;-2.90;99.90;;;;;;5051020;28;20045;-51
2022/03/01 02:36:50;;;;;;;17.00;5.80;;;-3.00;99.90;;;;;;5036725;28;20084;-54
2022/03/01 02:39:17;;;;;;;19.50;6.10;;;-3.00;99.90;;;;;;5051546;28;20045;-51
2022/03/01 02:41:45;;;;;;;19.05;6.32;;;-3.00;99.90;;;;;;5053021;28;20486;-53
2022/03/01 02:44:13;;;;;;;15.43;5.88;;;-3.00;99.90;;;;;;5051332;28;20045;-51
2022/03/01 02:46:41;;;;;;;12.15;5.40;;;-3.00;99.90;;;;;;5035223;28;20100;-51
2022/03/01 02:49:09;;;;;;;13.27;4.97;;;-3.00;99.90;;;;;;5050175;28;20052;-54
2022/03/01 02:51:38;;;;;;;12.68;5.65;;;-3.10;99.90;;;;;;5052926;28;20047;-52
2022/03/01 02:54:06;;;;;;;14.05;5.38;;;-3.10;99.90;;;;;;5043825;28;20041;-53
2022/03/01 02:56:33;;;;;;;14.70;5.50;;;-3.20;99.90;;;;;;5042740;28;20055;-53
2022/03/01 02:59:00;;;;;;;;;;;-3.20;99.90;;;;;;5029405;28;20083;-55
2022/03/01 03:01:28;;;;;;;12.13;5.22;;;-3.20;99.90;;;;;;5032788;28;19974;-53
2022/03/01 03:03:56;;;;;;;14.15;6.15;;;-3.20;99.90;;;;;;5038749;28;20037;-53
2022/03/01 03:06:24;;;;;;;14.25;5.78;;;-3.20;99.90;;;;;;5052129;28;20043;-53
2022/03/01 03:08:51;;;;;;;;;;;-3.20;99.90;;;;;;5052553;28;20045;-53
2022/03/01 03:11:18;;;;;;;22.60;7.68;;;-3.20;99.90;;;;;;5037595;28;20348;-54
2022/03/01 03:13:45;;;;;;;25.45;9.73;;;-3.20;99.90;;;;;;5047100;28;20045;-54
2022/03/01 03:16:11;;;;;;;25.30;8.38;;;-3.20;99.90;;;;;;5052464;28;20041;-54
2022/03/01 03:18:39;;;;;;;22.83;8.27;;;-3.20;99.90;;;;;;5035086;28;20041;-54
2022/03/01 03:21:05;;;;;;;;;;;-3.20;99.90;;;;;;5044103;28;20095;-54
2022/03/01 03:23:33;;;;;;;26.45;9.13;;;-3.30;99.90;;;;;;5052335;28;19928;-50
2022/03/01 03:26:00;;;;;;;30.33;10.00;;;-3.30;99.90;;;;;;5046593;28;20044;-52
2022/03/01 03:28:28;;;;;;;24.60;8.48;;;-3.30;99.90;;;;;;5043338;28;20447;-54
2022/03/01 03:30:55;;;;;;;18.13;8.30;;;-3.40;99.90;;;;;;5052211;28;20041;-55
2022/03/01 03:33:22;;;;;;;15.02;6.65;;;-3.40;99.90;;;;;;5047211;28;20041;-54
2022/03/01 03:35:50;;;;;;;16.02;6.82;;;-3.40;99.90;;;;;;5040120;28;20041;-52
2022/03/01 03:38:17;;;;;;;19.38;7.15;;;-3.40;99.90;;;;;;5050411;28;20074;-54
2022/03/01 03:40:44;;;;;;;15.82;6.90;;;-3.40;99.90;;;;;;5052032;28;20060;-52
2022/03/01 03:43:10;;;;;;;21.48;7.22;;;-3.40;99.90;;;;;;5040369;28;20037;-51
2022/03/01 03:45:38;;;;;;;21.02;6.97;;;-3.50;99.90;;;;;;5044150;28;20041;-50
2022/03/01 03:48:05;;;;;;;15.60;6.70;;;-3.40;99.90;;;;;;5051301;28;20045;-53
2022/03/01 03:50:32;;;;;;;14.55;6.20;;;-3.40;99.90;;;;;;5043539;28;20069;-54
2022/03/01 03:52:59;;;;;;;19.70;6.38;;;-3.40;99.90;;;;;;5036916;28;20448;-51
2022/03/01 03:55:26;;;;;;;14.27;5.82;;;-3.40;99.90;;;;;;5012107;28;20520;-54
2022/03/01 03:57:55;;;;;;;16.55;7.28;;;-3.40;99.90;;;;;;5011645;28;20064;-54
2022/03/01 04:00:22;;;;;;;;;;;-3.40;99.90;;;;;;5026710;28;20029;-51
2022/03/01 04:02:52;;;;;;;17.88;6.60;;;-3.40;99.90;;;;;;5043329;28;19943;-52
2022/03/01 04:05:20;;;;;;;18.48;7.35;;;-3.40;99.90;;;;;;5051626;28;20036;-55
2022/03/01 04:07:48;;;;;;;21.65;7.18;;;-3.40;99.90;;;;;;5050889;28;20045;-54
2022/03/01 04:10:15;;;;;;;20.90;8.15;;;-3.40;99.90;;;;;;5046554;28;20048;-55
2022/03/01 04:12:43;;;;;;;21.75;8.23;;;-3.50;99.90;;;;;;5045781;28;20520;-54
2022/03/01 04:15:10;;;;;;;18.17;8.18;;;-3.60;99.90;;;;;;5051381;28;20040;-54
2022/03/01 04:17:41;;;;;;;23.88;8.80;;;-3.60;99.90;;;;;;5049448;28;20051;-53
2022/03/01 04:20:08;;;;;;;29.17;9.88;;;-3.60;99.90;;;;;;5037300;28;20037;-52
2022/03/01 04:22:36;;;;;;;28.80;9.32;;;-3.60;99.90;;;;;;5051479;28;20098;-55
2022/03/01 04:25:06;;;;;;;30.58;9.93;;;-3.70;99.90;;;;;;5051404;28;20132;-52
2022/03/01 04:27:33;;;;;;;28.70;9.30;;;-3.60;99.90;;;;;;5035473;28;20135;-52
2022/03/01 04:30:00;;;;;;;27.85;9.35;;;-3.70;99.90;;;;;;5047683;28;20506;-55
2022/03/01 04:32:27;;;;;;;28.98;9.57;;;-3.70;99.90;;;;;;5032127;28;20053;-53
2022/03/01 04:34:54;;;;;;;26.75;9.20;;;-3.70;99.90;;;;;;5030365;28;20041;-51
2022/03/01 04:37:21;;;;;;;18.90;7.53;;;-3.70;99.90;;;;;;5039327;28;20041;-53
2022/03/01 04:39:47;;;;;;;21.30;7.90;;;-3.70;99.90;;;;;;5030815;28;20498;-54
2022/03/01 04:42:16;;;;;;;20.90;7.35;;;-3.70;99.90;;;;;;5033750;28;20045;-54
2022/03/01 04:44:44;;;;;;;17.35;7.57;;;-3.80;99.90;;;;;;5026812;28;20033;-54
2022/03/01 04:47:10;;;;;;;;;;;-3.80;99.90;;;;;;5043858;28;20047;-54
2022/03/01 04:49:37;;;;;;;21.25;7.45;;;-3.80;99.90;;;;;;5054955;28;19927;-54
2022/03/01 04:52:04;;;;;;;13.60;5.80;;;-3.80;99.90;;;;;;5055185;28;20506;-55
2022/03/01 04:54:32;;;;;;;25.80;6.95;;;-3.80;99.90;;;;;;5048000;28;20037;-55
2022/03/01 04:56:59;;;;;;;;;;;-3.80;99.90;;;;;;5039219;28;20041;-55
2022/03/01 04:59:26;;;;;;;17.50;6.45;;;-3.90;99.90;;;;;;5034629;28;20368;-53
2022/03/01 05:01:52;;;;;;;10.35;4.63;;;-4.00;99.90;;;;;;5035024;28;20041;-55
2022/03/01 05:04:21;;;;;;;;;;;-3.90;99.90;;;;;;5036733;28;20045;-53
2022/03/01 05:06:49;;;;;;;17.45;6.43;;;-4.00;99.90;;;;;;5048992;28;19920;-52
2022/03/01 05:09:16;;;;;;;13.75;6.30;;;-3.90;99.90;;;;;;5034448;28;20044;-53
2022/03/01 05:11:43;;;;;;;18.73;6.72;;;-3.80;99.90;;;;;;5030515;28;20041;-53
2022/03/01 05:14:10;;;;;;;15.90;5.97;;;-3.70;99.90;;;;;;5042455;28;20045;-51
2022/03/01 05:16:37;;;;;;;16.95;6.47;;;-3.70;99.90;;;;;;5040797;28;20059;-54
2022/03/01 05:19:05;;;;;;;16.77;7.20;;;-3.70;99.90;;;;;;5033879;28;20253;-54
2022/03/01 05:21:34;;;;;;;21.75;8.05;;;-3.70;99.90;;;;;;5036331;28;20057;-52
2022/03/01 05:24:02;;;;;;;19.48;8.13;;;-3.70;99.90;;;;;;5037039;28;20038;-52
2022/03/01 05:26:29;;;;;;;19.30;7.38;;;-3.60;99.90;;;;;;5033653;28;20083;-53
2022/03/01 05:28:56;;;;;;;20.48;7.90;;;-3.70;99.90;;;;;;5033122;28;20045;-54
2022/03/01 05:31:25;;;;;;;18.98;8.60;;;-3.70;99.90;;;;;;5033633;28;20048;-53
2022/03/01 05:33:52;;;;;;;22.10;8.45;;;-3.70;99.90;;;;;;5031943;28;20052;-55
2022/03/01 05:36:20;;;;;;;35.35;13.27;;;-3.70;99.90;;;;;;5031888;28;20052;-51
2022/03/01 05:38:47;;;;;;;23.63;9.43;;;-3.70;99.90;;;;;;5035352;28;20041;-54
2022/03/01 05:41:15;;;;;;;25.85;10.15;;;-3.70;99.90;;;;;;5032992;28;20073;-54
2022/03/01 05:43:41;;;;;;;27.17;10.27;;;-3.70;99.90;;;;;;5033713;28;20482;-53
2022/03/01 05:46:08;;;;;;;41.50;13.25;;;-3.80;99.90;;;;;;5033702;28;20041;-51
2022/03/01 05:48:35;;;;;;;25.67;10.55;;;-3.80;99.90;;;;;;5038244;28;20045;-55
2022/03/01 05:51:04;;;;;;;18.17;8.50;;;-3.90;99.90;;;;;;5050645;28;20041;-53
2022/03/01 05:53:31;;;;;;;19.90;7.82;;;-3.90;99.90;;;;;;5054100;28;20120;-53
2022/03/01 05:56:00;;;;;;;17.77;7.15;;;-3.90;99.90;;;;;;5054069;28;20044;-54
2022/03/01 05:58:27;;;;;;;20.83;7.22;;;-4.00;99.90;;;;;;5029461;28;20087;-52
2022/03/01 06:00:53;;;;;;;23.73;7.80;;;-4.00;99.90;;;;;;5037996;28;20064;-54
2022/03/01 06:03:21;;;;;;;24.95;8.40;;;-4.00;99.90;;;;;;5033763;28;20041;-53
2022/03/01 06:05:47;;;;;;;22.38;7.75;;;-4.00;99.90;;;;;;5034305;28;20398;-53
2022/03/01 06:08:14;;;;;;;23.17;8.57;;;-4.00;99.90;;;;;;5057240;28;20045;-54
2022/03/01 06:10:41;;;;;;;22.05;7.65;;;-4.00;99.90;;;;;;5053821;28;20041;-51
2022/03/01 06:13:08;;;;;;;40.30;14.55;;;-4.00;99.90;;;;;;5053547;28;20120;-54
2022/03/01 06:15:35;;;;;;;84.63;28.90;;;-4.00;99.90;;;;;;5039845;28;20056;-53
2022/03/01 06:18:02;;;;;;;61.88;22.85;;;-4.00;99.90;;;;;;5049319;28;20056;-54
2022/03/01 06:20:29;;;;;;;26.63;12.02;;;-3.90;99.90;;;;;;5053466;28;20041;-51
2022/03/01 06:22:56;;;;;;;26.83;11.48;;;-3.90;99.90;;;;;;5053391;28;20041;-53
2022/03/01 06:25:23;;;;;;;24.05;10.57;;;-3.90;99.90;;;;;;5034250;28;20117;-52
2022/03/01 06:27:51;;;;;;;22.48;11.18;;;-3.90;99.90;;;;;;5048080;28;20045;-54
2022/03/01 06:30:18;;;;;;;28.90;11.52;;;-3.90;99.90;;;;;;5053208;28;20859;-55
2022/03/01 06:32:45;;;;;;;34.35;12.70;;;-3.90;99.90;;;;;;5053000;28;20051;-52
2022/03/01 06:35:12;;;;;;;28.95;11.98;;;-3.80;99.90;;;;;;5034901;28;20051;-53
2022/03/01 06:37:44;;;;;;;22.17;8.57;;;-3.90;99.90;;;;;;5046708;28;20044;-53
2022/03/01 06:40:12;;;;;;;24.00;9.93;;;-3.80;99.90;;;;;;5044564;28;20056;-52
2022/03/01 06:42:40;;;;;;;23.80;10.68;;;-3.80;99.90;;;;;;5034169;28;20481;-53
2022/03/01 06:45:07;;;;;;;;;;;-3.90;99.90;;;;;;5044140;28;20406;-51
2022/03/01 06:47:35;;;;;;;21.38;8.20;;;-3.90;99.90;;;;;;5050976;28;20366;-55
2022/03/01 06:50:03;;;;;;;21.98;7.65;;;-3.90;99.90;;;;;;5048525;28;20095;-54
2022/03/01 06:52:32;;;;;;;21.23;8.82;;;-3.90;99.90;;;;;;5044199;28;20488;-54
2022/03/01 06:54:59;;;;;;;23.40;8.63;;;-3.90;99.90;;;;;;5052838;28;20119;-53
2022/03/01 06:57:26;;;;;;;27.48;10.85;;;-3.80;99.90;;;;;;5052424;28;20045;-55
2022/03/01 06:59:53;;;;;;;34.47;11.95;;;-3.70;99.90;;;;;;5040814;28;20041;-50
2022/03/01 07:02:21;;;;;;;39.80;15.27;;;-3.70;99.90;;;;;;5051867;28;20040;-52
2022/03/01 07:04:48;;;;;;;42.95;15.55;;;-3.70;99.90;;;;;;5052090;28;20119;-53
2022/03/01 07:07:15;;;;;;;35.00;12.80;;;-3.70;99.90;;;;;;5043932;28;20052;-53
2022/03/01 07:09:42;;;;;;;25.23;9.75;;;-3.60;99.90;;;;;;5045022;28;20045;-55
2022/03/01 07:12:09;;;;;;;20.73;7.80;;;-3.60;99.90;;;;;;5051204;28;20130;-53
2022/03/01 07:14:36;;;;;;;20.27;6.95;;;-3.40;99.90;;;;;;5052322;28;20037;-52
2022/03/01 07:17:03;;;;;;;19.05;8.23;;;-3.20;99.90;;;;;;5039456;28;20486;-53
2022/03/01 07:19:31;;;;;;;18.42;7.10;;;-3.00;99.90;;;;;;5052014;28;20123;-54
2022/03/01 07:21:57;;;;;;;;;;;-2.80;99.90;;;;;;5052889;28;20029;-53
2022/03/01 07:24:25;;;;;;;18.38;8.23;;;-2.60;99.90;;;;;;5037501;28;19924;-52
2022/03/01 07:26:52;;;;;;;20.15;8.13;;;-2.50;99.90;;;;;;5043562;28;20033;-54
2022/03/01 07:29:19;;;;;;;21.00;8.45;;;-2.40;99.90;;;;;;5051966;28;20052;-53
2022/03/01 07:31:46;;;;;;;19.27;8.43;;;-2.30;99.90;;;;;;5041527;28;20045;-53
2022/03/01 07:34:24;;;;;;;26.05;8.60;;;-2.20;99.90;;;;;;5044036;28;20075;-52
2022/03/01 07:36:51;;;;;;;22.10;9.05;;;-2.10;99.90;;;;;;5051838;28;20052;-52
2022/03/01 07:39:18;;;;;;;21.50;7.90;;;-2.00;99.90;;;;;;5051173;28;20482;-50
2022/03/01 07:41:48;;;;;;;23.35;8.68;;;-1.90;99.90;;;;;;5036727;28;20033;-50
2022/03/01 07:44:16;;;;;;;24.17;8.70;;;-1.90;99.90;;;;;;5049361;28;20184;-53
2022/03/01 07:46:44;;;;;;;20.65;9.30;;;-1.90;99.90;;;;;;5051747;28;20041;-52
2022/03/01 07:49:11;;;;;;;22.50;8.52;;;-1.80;99.90;;;;;;5051417;28;20041;-55
2022/03/01 07:51:38;;;;;;;20.55;7.18;;;-1.80;99.90;;;;;;5034142;28;20038;-52
2022/03/01 07:54:04;;;;;;;21.35;7.63;;;-1.70;99.90;;;;;;5048883;28;20053;-50
2022/03/01 07:56:31;;;;;;;16.52;7.55;;;-1.70;99.90;;;;;;5051718;28;20060;-55
2022/03/01 07:58:58;;;;;;;16.83;7.80;;;-1.50;99.90;;;;;;5046991;28;20041;-52
2022/03/01 08:01:25;;;;;;;15.18;7.03;;;-1.30;99.90;;;;;;5035241;28;20040;-54
2022/03/01 08:03:52;;;;;;;20.00;6.80;;;-1.20;99.90;;;;;;5051386;28;20045;-51
2022/03/01 08:06:19;;;;;;;14.63;6.35;;;-1.30;99.90;;;;;;5044237;28;20498;-51
2022/03/01 08:08:46;;;;;;;16.92;7.80;;;-1.30;99.90;;;;;;5043426;28;20436;-52
2022/03/01 08:11:13;;;;;;;15.88;7.18;;;-1.40;99.90;;;;;;5051340;28;20044;-52
2022/03/01 08:13:41;;;;;;;21.58;7.70;;;-1.50;99.90;;;;;;5051410;28;20083;-53
2022/03/01 08:16:08;;;;;;;;;;;-1.40;99.90;;;;;;5032629;28;20037;-53
2022/03/01 08:19:27;;;;;;;20.33;6.65;;;-1.40;99.90;;;;;;5059516;22;19932;-56
2022/03/01 08:22:20;;;;;;;15.73;7.05;;;-1.20;99.90;;;;;;5030968;28;20064;-56
2022/03/01 08:24:47;;;;;;;18.88;8.07;;;-0.90;99.90;;;;;;5037937;28;20064;-54
2022/03/01 08:27:14;;;;;;;26.83;8.07;;;-0.80;99.90;;;;;;5050937;28;20112;-56
2022/03/01 08:29:41;;;;;;;14.45;6.57;;;-0.70;99.90;;;;;;5049995;28;20045;-55
2022/03/01 08:32:08;;;;;;;11.35;4.85;;;-0.70;99.90;;;;;;5051217;28;20033;-54
2022/03/01 08:34:34;;;;;;;12.82;5.45;;;-0.70;99.90;;;;;;5044808;28;20045;-50
2022/03/01 08:37:01;;;;;;;23.48;6.78;;;-0.60;99.90;;;;;;5050792;28;20544;-51
2022/03/01 08:39:28;;;;;;;14.30;5.05;;;-0.50;99.90;;;;;;5050829;28;20449;-53
2022/03/01 08:41:58;;;;;;;15.13;6.32;;;-0.40;99.90;;;;;;5051097;28;20047;-53
2022/03/01 08:44:24;;;;;;;13.25;5.38;;;-0.30;99.90;;;;;;5043381;28;20041;-56
2022/03/01 08:46:53;;;;;;;12.75;5.82;;;-0.10;99.90;;;;;;5051106;28;20090;-56
2022/03/01 08:49:20;;;;;;;13.63;6.80;;;-0.10;99.90;;;;;;5050808;28;20049;-53
2022/03/01 08:51:46;;;;;;;17.13;5.75;;;0.00;99.90;;;;;;5045578;28;20037;-53
2022/03/01 08:54:13;;;;;;;15.93;5.93;;;0.10;99.90;;;;;;5050881;28;20467;-54
2022/03/01 08:56:41;;;;;;;;;;;0.20;99.90;;;;;;5051748;28;20412;-54
2022/03/01 08:59:08;;;;;;;14.95;6.82;;;0.30;99.90;;;;;;5046025;28;19925;-54
2022/03/01 09:01:35;;;;;;;16.30;6.45;;;0.40;99.90;;;;;;5050883;28;20051;-55
2022/03/01 09:04:02;;;;;;;18.30;6.15;;;0.70;99.90;;;;;;5051346;28;20048;-53
2022/03/01 09:06:29;;;;;;;21.55;7.20;;;0.80;99.90;;;;;;5050988;28;20095;-56
2022/03/01 09:08:56;;;;;;;15.98;6.07;;;1.00;99.90;;;;;;5049044;28;20045;-55
2022/03/01 09:11:23;;;;;;;11.82;6.05;;;1.10;99.20;;;;;;5050751;28;20048;-53
2022/03/01 09:13:49;;;;;;;14.93;6.43;;;1.30;97.80;;;;;;5050953;28;20045;-54
2022/03/01 09:16:16;;;;;;;14.93;7.05;;;1.30;97.20;;;;;;5048979;28;20043;-53
2022/03/01 09:18:43;;;;;;;13.45;6.72;;;1.30;97.10;;;;;;5044631;28;20133;-53
2022/03/01 09:21:10;;;;;;;13.98;6.25;;;1.20;97.20;;;;;;5051132;28;20041;-55
2022/03/01 09:23:40;;;;;;;15.05;6.10;;;1.50;97.30;;;;;;5050706;28;20043;-55
2022/03/01 09:26:07;;;;;;;20.25;7.72;;;1.80;96.40;;;;;;5047511;28;20038;-55
2022/03/01 09:28:35;;;;;;;19.38;6.93;;;1.90;95.90;;;;;;5053904;28;20056;-56
2022/03/01 09:31:02;;;;;;;14.88;6.82;;;2.00;95.60;;;;;;5054390;28;20055;-56
2022/03/01 09:33:31;;;;;;;21.80;8.15;;;2.00;95.30;;;;;;5052584;28;20049;-52
2022/03/01 09:35:58;;;;;;;16.15;7.30;;;2.20;95.10;;;;;;5050537;28;20047;-53
2022/03/01 09:38:26;;;;;;;10.73;5.47;;;2.30;94.80;;;;;;5033773;28;20049;-54
2022/03/01 09:40:53;;;;;;;15.80;7.03;;;2.50;93.50;;;;;;5034578;28;20041;-54
2022/03/01 09:43:21;;;;;;;10.88;5.28;;;2.70;93.50;;;;;;5036792;28;20041;-54
2022/03/01 09:45:47;;;;;;;14.27;7.07;;;2.80;92.50;;;;;;5054120;28;20043;-57
2022/03/01 09:48:14;;;;;;;11.68;5.97;;;3.00;92.60;;;;;;5053487;28;20045;-54
2022/03/01 09:50:42;;;;;;;13.27;5.70;;;3.00;90.00;;;;;;5053935;28;20045;-56
2022/03/01 09:53:08;;;;;;;15.05;5.95;;;3.00;89.50;;;;;;5050284;28;20116;-57
2022/03/01 09:55:35;;;;;;;13.57;6.00;;;2.90;87.90;;;;;;5053746;28;20045;-56
2022/03/01 09:58:03;;;;;;;16.63;6.50;;;2.80;87.20;;;;;;5051786;28;20060;-54
2022/03/01 10:00:31;;;;;;;10.52;5.40;;;2.80;84.40;;;;;;5049457;28;20032;-56
2022/03/01 10:02:58;;;;;;;10.07;4.47;;;2.90;82.30;;;;;;5053743;28;20037;-57
2022/03/01 10:05:36;;;;;;;10.88;5.28;;;3.00;79.30;;;;;;5052443;28;20045;-54
2022/03/01 10:08:17;;;;;;;13.00;5.95;;;3.20;80.80;;;;;;5049491;28;20041;-55
2022/03/01 10:10:47;;;;;;;16.33;6.07;;;3.20;79.50;;;;;;5053542;28;20045;-53
2022/03/01 10:13:27;;;;;;;13.82;5.97;;;3.20;81.30;;;;;;5053484;28;20052;-57
2022/03/01 10:16:09;;;;;;;12.13;5.63;;;3.40;81.70;;;;;;5053581;28;20124;-56
2022/03/01 10:18:41;;;;;;;14.38;6.53;;;3.60;80.30;;;;;;5046653;28;20404;-55
2022/03/01 10:21:11;;;;;;;11.63;6.13;;;3.70;82.00;;;;;;5053261;28;20490;-54
2022/03/01 10:23:47;;;;;;;21.25;6.13;;;3.70;79.00;;;;;;5053137;28;20053;-55
2022/03/01 10:26:23;;;;;;;14.35;4.97;;;3.80;80.90;;;;;;5049913;28;20041;-56
2022/03/01 10:28:52;;;;;;;8.48;5.05;;;4.00;77.90;;;;;;5047991;28;20500;-56
2022/03/01 10:31:25;;;;;;;19.25;5.40;;;4.10;77.70;;;;;;5051298;28;20056;-57
2022/03/01 10:34:12;;;;;;;10.18;5.05;;;4.10;75.10;;;;;;5050820;28;20037;-53
2022/03/01 10:36:47;;;;;;;14.43;5.78;;;4.20;76.80;;;;;;5047158;28;20141;-55
2022/03/01 10:39:16;;;;;;;16.60;5.68;;;4.20;74.70;;;;;;5051674;28;20081;-56
2022/03/01 10:41:46;;;;;;;11.70;5.60;;;4.00;74.50;;;;;;5053048;28;20044;-58
2022/03/01 10:44:18;;;;;;;14.57;5.72;;;4.00;74.90;;;;;;5046038;28;20060;-57
2022/03/01 10:46:52;;;;;;;9.30;4.65;;;4.10;75.70;;;;;;5052709;28;20063;-52
2022/03/01 10:49:28;;;;;;;10.38;5.68;;;4.20;74.10;;;;;;5052570;28;20048;-56
2022/03/01 10:51:59;;;;;;;13.00;6.10;;;4.30;74.60;;;;;;5052855;28;20037;-56
2022/03/01 10:54:27;;;;;;;16.00;5.82;;;4.40;73.60;;;;;;5050122;28;20120;-56
2022/03/01 10:56:55;;;;;;;12.50;6.13;;;4.40;71.80;;;;;;5052662;28;20041;-57
2022/03/01 10:59:24;;;;;;;12.13;5.15;;;4.40;70.20;;;;;;5052153;28;20549;-54
2022/03/01 11:01:52;;;;;;;11.65;5.40;;;4.40;72.30;;;;;;5046361;28;20553;-55
2022/03/01 11:04:21;;;;;;;14.32;5.65;;;4.50;72.10;;;;;;5051717;28;20049;-57
2022/03/01 11:06:49;;;;;;;11.10;5.63;;;4.50;70.70;;;;;;5051288;28;20040;-57
2022/03/01 11:09:17;;;;;;;10.73;5.20;;;4.60;71.20;;;;;;5052364;28;20409;-55
2022/03/01 11:11:45;;;;;;;12.60;6.10;;;4.40;69.10;;;;;;5047095;28;20036;-56
2022/03/01 11:14:18;;;;;;;27.00;6.07;;;4.50;68.50;;;;;;5052229;28;20045;-56
2022/03/01 11:17:03;;;;;;;12.23;5.53;;;4.70;70.40;;;;;;5052082;28;20052;-56
2022/03/01 11:19:47;;;;;;;13.77;5.80;;;4.80;65.80;;;;;;5045728;28;20045;-56
2022/03/01 11:22:42;;;;;;;11.60;5.25;;;4.90;67.20;;;;;;5042417;28;20532;-55
2022/03/01 11:25:20;;;;;;;10.38;5.10;;;4.90;66.60;;;;;;5052312;28;20043;-56
2022/03/01 11:27:50;;;;;;;11.85;5.40;;;5.10;66.10;;;;;;5051663;28;20299;-56
2022/03/01 11:30:26;;;;;;;10.27;5.03;;;5.00;64.50;;;;;;5043049;28;20059;-56
2022/03/01 11:32:56;;;;;;;10.68;4.97;;;5.10;66.50;;;;;;5051954;28;20136;-55
2022/03/01 11:35:37;;;;;;;13.43;5.25;;;5.20;65.40;;;;;;5051884;28;20045;-55
2022/03/01 11:38:16;;;;;;;15.27;5.50;;;5.30;65.10;;;;;;5045643;28;20049;-55
2022/03/01 11:40:51;;;;;;;11.95;5.50;;;5.40;65.40;;;;;;5051665;28;20044;-57
2022/03/01 11:43:26;;;;;;;9.55;5.60;;;5.50;61.70;;;;;;5051919;28;20152;-58
2022/03/01 11:45:58;;;;;;;11.02;5.28;;;5.70;65.00;;;;;;5051939;28;20460;-57
2022/03/01 11:48:27;;;;;;;10.10;5.55;;;5.70;62.70;;;;;;5043767;28;20087;-56
2022/03/01 11:51:04;;;;;;;13.13;6.10;;;5.70;62.60;;;;;;5051464;28;20055;-57
2022/03/01 11:53:36;;;;;;;14.52;6.13;;;5.70;61.40;;;;;;5051630;28;20094;-57
2022/03/01 11:56:05;;;;;;;10.25;5.28;;;5.80;62.00;;;;;;5051547;28;20433;-58
2022/03/01 11:58:34;;;;;;;10.65;5.15;;;6.00;60.30;;;;;;5044109;28;20170;-58
2022/03/01 12:01:09;;;;;;;10.00;5.10;;;6.00;59.80;;;;;;5051526;28;20119;-56
2022/03/01 12:03:38;;;;;;;7.75;4.43;;;6.00;59.60;;;;;;5051422;28;20041;-57
2022/03/01 12:06:07;;;;;;;6.40;3.95;;;6.00;58.10;;;;;;5049954;28;20045;-56
2022/03/01 12:08:37;;;;;;;9.90;5.20;;;6.00;57.10;;;;;;5050850;28;20045;-56
2022/03/01 12:11:04;;;;;;;10.40;4.78;;;6.00;58.20;;;;;;5051590;28;20425;-56
2022/03/01 12:13:42;;;;;;;9.10;4.35;;;5.90;57.60;;;;;;5051308;28;20073;-56
2022/03/01 12:16:11;;;;;;;5.90;3.63;;;6.00;56.60;;;;;;5048351;28;20092;-57
2022/03/01 12:18:40;;;;;;;23.10;9.23;;;6.10;56.40;;;;;;5050550;28;20048;-55
2022/03/01 12:21:10;;;;;;;18.67;8.20;;;6.20;55.30;;;;;;5051491;28;20037;-56
2022/03/01 12:23:39;;;;;;;18.98;8.40;;;6.30;55.80;;;;;;5051087;28;20052;-57
2022/03/01 12:26:09;;;;;;;25.00;9.95;;;6.40;54.60;;;;;;5049300;28;20091;-57
2022/03/01 12:28:43;;;;;;;9.77;4.28;;;6.50;54.70;;;;;;5050819;28;20037;-57
2022/03/01 12:31:20;;;;;;;11.15;3.92;;;6.40;52.60;;;;;;5051137;28;20045;-57
2022/03/01 12:33:55;;;;;;;10.03;4.30;;;6.50;53.20;;;;;;5050399;28;20044;-58
2022/03/01 12:36:34;;;;;;;10.50;4.03;;;6.60;53.00;;;;;;5050823;28;20071;-54
2022/03/01 12:39:14;;;;;;;7.78;4.38;;;6.90;51.50;;;;;;5050790;28;20114;-58
2022/03/01 12:41:48;;;;;;;13.70;3.97;;;7.00;53.20;;;;;;5051358;28;20037;-58
2022/03/01 12:44:17;;;;;;;8.77;4.53;;;6.90;53.00;;;;;;5046983;28;20037;-59
2022/03/01 12:46:44;;;;;;;11.40;4.15;;;6.90;53.00;;;;;;5050751;28;20098;-57
2022/03/01 12:49:14;;;;;;;10.10;4.32;;;6.90;53.50;;;;;;5050611;28;20052;-58
2022/03/01 12:51:42;;;;;;;10.25;4.47;;;6.90;54.20;;;;;;5051133;28;20045;-55
2022/03/01 12:54:14;;;;;;;9.25;4.28;;;6.90;52.20;;;;;;5044067;28;20508;-57
2022/03/01 12:56:46;;;;;;;6.90;4.25;;;6.90;52.20;;;;;;5050622;28;20047;-58